createdAt,value
2023-01-25T00:02:44.611Z,1.79
2023-01-25T00:10:04.651Z,1.64
2023-01-25T00:17:22.796Z,1.77
2023-01-25T00:24:40.895Z,1.70
2023-01-25T00:32:43.420Z,1.70
2023-01-25T00:40:01.715Z,1.64
2023-01-25T00:47:21.309Z,1.66
2023-01-25T00:54:39.687Z,1.68
2023-01-25T01:01:58.723Z,1.69
2023-01-25T01:09:19.602Z,1.62
2023-01-25T01:16:38.105Z,1.68
2023-01-25T01:23:56.689Z,1.58
2023-01-25T01:31:18.616Z,1.62
2023-01-25T01:38:46.121Z,1.67
2023-01-25T01:46:05.353Z,1.70
2023-01-25T01:53:28.905Z,1.66
2023-01-25T02:00:47.201Z,1.61
2023-01-25T02:08:06.874Z,1.53
2023-01-25T02:15:29.376Z,1.63
2023-01-25T02:22:54.196Z,1.71
2023-01-25T02:30:14.156Z,1.78
2023-01-25T02:37:32.460Z,1.63
2023-01-25T02:44:51.461Z,1.68
2023-01-25T02:52:11.113Z,1.66
2023-01-25T02:59:29.348Z,1.68
2023-01-25T03:06:51.962Z,1.65
2023-01-25T03:14:12.199Z,1.73
2023-01-25T03:21:30.933Z,1.71
2023-01-25T03:28:49.405Z,1.56
2023-01-25T03:36:10.735Z,1.56
2023-01-25T03:43:29.963Z,1.50
2023-01-25T03:50:52.494Z,1.37
2023-01-25T03:58:13.417Z,1.43
2023-01-25T04:05:32.320Z,1.48
2023-01-25T04:12:51.670Z,1.55
2023-01-25T04:20:13.060Z,1.57
2023-01-25T04:27:32.303Z,1.57
2023-01-25T04:35:03.763Z,1.35
2023-01-25T04:42:24.321Z,1.45
2023-01-25T04:49:46.331Z,1.42
2023-01-25T04:57:08.361Z,1.22
2023-01-25T05:04:29.693Z,1.37
2023-01-25T05:11:48.331Z,1.34
2023-01-25T05:19:15.818Z,1.31
2023-01-25T05:27:03.751Z,1.25
2023-01-25T05:34:59.304Z,1.31
2023-01-25T05:42:20.223Z,1.42
2023-01-25T05:49:39.186Z,1.44
2023-01-25T05:57:00.285Z,1.36
2023-01-25T06:04:20.327Z,1.22
2023-01-25T06:11:39.089Z,1.19
2023-01-25T06:18:57.484Z,1.17
2023-01-25T06:26:38.729Z,1.17
2023-01-25T06:33:59.930Z,1.24
2023-01-25T06:41:19.021Z,1.17
2023-01-25T06:48:38.857Z,1.20
2023-01-25T06:56:00.989Z,1.25
2023-01-25T07:03:19.214Z,1.25
2023-01-25T07:10:38.805Z,1.23
2023-01-25T07:18:03.242Z,1.23
2023-01-25T07:25:29.827Z,1.23
2023-01-25T07:32:49.417Z,1.35
2023-01-25T07:40:08.820Z,1.28
2023-01-25T07:47:26.988Z,1.28
2023-01-25T07:54:48.329Z,1.30
2023-01-25T08:02:09.344Z,1.28
2023-01-25T08:09:28.600Z,1.33
2023-01-25T08:16:48.133Z,1.32
2023-01-25T08:24:07.917Z,1.34
2023-01-25T08:31:28.353Z,1.29
2023-01-25T08:38:48.585Z,1.26
2023-01-25T08:46:07.445Z,1.34
2023-01-25T08:53:25.800Z,1.42
2023-01-25T09:00:45.560Z,1.60
2023-01-25T09:08:05.482Z,1.55
2023-01-25T09:15:24.229Z,1.45
2023-01-25T09:22:43.795Z,1.57
2023-01-25T09:30:03.278Z,1.46
2023-01-25T09:37:22.570Z,1.62
2023-01-25T09:44:52.486Z,1.88
2023-01-25T09:52:22.677Z,1.89
2023-01-25T09:59:42.046Z,1.84
2023-01-25T10:07:08.068Z,1.57
2023-01-25T10:14:26.723Z,1.63
2023-01-25T10:21:47.200Z,1.61
2023-01-25T10:29:12.581Z,1.77
2023-01-25T10:36:31.974Z,1.85
2023-01-25T10:44:10.325Z,2.14
2023-01-25T10:51:35.537Z,2.06
2023-01-25T10:58:55.560Z,2.12
2023-01-25T11:06:14.344Z,2.17
2023-01-25T11:13:35.387Z,2.35
2023-01-25T11:21:06.230Z,2.38
2023-01-25T11:28:25.497Z,2.26
2023-01-25T11:36:03.451Z,2.24
2023-01-25T11:43:33.989Z,2.28
2023-01-25T11:51:00.821Z,2.19
2023-01-25T11:58:36.098Z,2.07
2023-01-25T12:06:00.538Z,2.06
2023-01-25T12:13:25.566Z,2.05
2023-01-25T12:21:17.494Z,2.22
2023-01-25T12:28:45.888Z,2.19
2023-01-25T12:36:08.614Z,2.19
2023-01-25T12:43:32.059Z,2.24
2023-01-25T12:50:52.586Z,2.14
2023-01-25T12:58:26.505Z,2.06
2023-01-25T13:05:57.758Z,2.08
2023-01-25T13:13:25.383Z,2.07
2023-01-25T13:20:50.883Z,2.09
2023-01-25T13:28:42.973Z,2.15
2023-01-25T13:36:45.382Z,1.96
2023-01-25T13:44:28.464Z,2.07
2023-01-25T13:51:47.940Z,2.18
2023-01-25T13:59:06.423Z,2.07
2023-01-25T14:06:28.007Z,2.45
2023-01-25T14:13:57.202Z,3.65
2023-01-25T14:21:18.436Z,3.26
2023-01-25T14:28:37.962Z,3.07
2023-01-25T14:36:03.490Z,2.94
2023-01-25T14:43:31.115Z,2.48
2023-01-25T14:50:50.821Z,2.28
2023-01-25T14:58:14.425Z,2.01
2023-01-25T15:05:33.713Z,1.95
2023-01-25T15:13:13.295Z,1.99
2023-01-25T15:20:38.006Z,1.91
2023-01-25T15:27:56.312Z,1.86
2023-01-25T15:35:19.363Z,1.75
2023-01-25T15:42:37.589Z,1.76
2023-01-25T15:49:55.849Z,1.73
2023-01-25T15:57:22.046Z,1.71
2023-01-25T16:04:42.372Z,1.77
2023-01-25T16:12:02.837Z,1.72
2023-01-25T16:19:25.593Z,1.99
2023-01-25T16:26:46.567Z,1.78
2023-01-25T16:34:05.167Z,1.69
2023-01-25T16:41:24.799Z,1.53
2023-01-25T16:48:42.994Z,1.55
2023-01-25T16:56:01.168Z,1.62
2023-01-25T17:03:20.766Z,1.67
2023-01-25T17:10:39.408Z,1.48
2023-01-25T17:18:00.130Z,1.38
2023-01-25T17:25:20.586Z,1.41
2023-01-25T17:32:38.911Z,1.33
2023-01-25T17:39:57.129Z,1.24
2023-01-25T17:47:16.851Z,1.33
2023-01-25T17:54:36.413Z,1.45
2023-01-25T18:01:54.730Z,1.32
2023-01-25T18:09:14.291Z,1.25
2023-01-25T18:16:33.834Z,1.33
2023-01-25T18:23:52.792Z,1.25
2023-01-25T18:31:12.900Z,1.27
2023-01-25T18:38:32.945Z,1.29
2023-01-25T18:45:55.746Z,1.20
2023-01-25T18:53:17.730Z,1.24
2023-01-25T19:00:36.311Z,1.14
2023-01-25T19:07:54.505Z,1.31
2023-01-25T19:15:14.259Z,1.08
2023-01-25T19:22:32.679Z,0.94
2023-01-25T19:29:51.649Z,1.14
2023-01-25T19:37:11.288Z,0.94
2023-01-25T19:44:29.911Z,1.02
2023-01-25T19:51:53.257Z,1.05
2023-01-25T19:59:15.052Z,1.11
2023-01-25T20:06:33.809Z,1.00
2023-01-25T20:13:54.244Z,0.98
2023-01-25T20:21:15.403Z,0.86
2023-01-25T20:28:34.753Z,0.94
2023-01-25T20:35:55.156Z,0.96
2023-01-25T20:43:14.728Z,0.89
2023-01-25T20:50:32.885Z,0.95
2023-01-25T20:57:53.490Z,0.91
2023-01-25T21:05:13.848Z,0.95
2023-01-25T21:12:33.558Z,0.96
2023-01-25T21:19:51.933Z,0.92
2023-01-25T21:27:11.845Z,0.99
2023-01-25T21:34:31.091Z,0.99
2023-01-25T21:41:49.399Z,0.96
2023-01-25T21:49:28.057Z,1.01
2023-01-25T21:56:49.260Z,1.13
2023-01-25T22:04:08.809Z,1.07
2023-01-25T22:11:27.258Z,1.08
2023-01-25T22:18:45.789Z,1.20
2023-01-25T22:26:08.062Z,1.10
2023-01-25T22:33:26.332Z,1.02
2023-01-25T22:40:44.761Z,1.01
2023-01-25T22:48:04.289Z,0.89
2023-01-25T22:55:22.536Z,0.97
2023-01-25T23:02:40.715Z,0.80
2023-01-25T23:10:00.565Z,0.83
2023-01-25T23:17:48.151Z,0.86
2023-01-25T23:25:09.988Z,0.92
2023-01-25T23:32:29.081Z,0.84
2023-01-25T23:39:47.705Z,0.85
2023-01-25T23:47:07.602Z,0.89
2023-01-25T23:54:27.032Z,0.90
